sensor_id;sensor_type;location;lat;lon;timestamp;pressure;altitude;pressure_sealevel;temperature;humidity
23176;BME280;19910;42.652;23.332;2022-07-23T00:02:24;94879.50;;;20.34;58.12
23176;BME280;19910;42.652;23.332;2022-07-23T00:04:53;94872.53;;;20.50;56.80
23176;BME280;19910;42.652;23.332;2022-07-23T00:07:20;94885.31;;;20.25;56.97
23176;BME280;19910;42.652;23.332;2022-07-23T00:09:46;94884.16;;;20.22;57.03
23176;BME280;19910;42.652;23.332;2022-07-23T00:12:13;94874.63;;;20.13;57.16
23176;BME280;19910;42.652;23.332;2022-07-23T00:14:41;94883.22;;;20.04;57.68
23176;BME280;19910;42.652;23.332;2022-07-23T00:17:07;94889.44;;;19.98;57.51
23176;BME280;19910;42.652;23.332;2022-07-23T00:19:34;94887.84;;;19.97;57.57
23176;BME280;19910;42.652;23.332;2022-07-23T00:22:03;94892.81;;;19.77;58.58
23176;BME280;19910;42.652;23.332;2022-07-23T00:24:30;94897.84;;;19.71;61.05
23176;BME280;19910;42.652;23.332;2022-07-23T00:26:57;94895.53;;;19.73;61.58
23176;BME280;19910;42.652;23.332;2022-07-23T00:29:23;94900.28;;;19.76;62.35
23176;BME280;19910;42.652;23.332;2022-07-23T00:31:50;94895.53;;;19.73;62.50
23176;BME280;19910;42.652;23.332;2022-07-23T00:34:17;94898.59;;;19.68;63.04
23176;BME280;19910;42.652;23.332;2022-07-23T00:36:44;94898.28;;;19.73;62.38
23176;BME280;19910;42.652;23.332;2022-07-23T00:39:12;94901.44;;;19.75;62.52
23176;BME280;19910;42.652;23.332;2022-07-23T00:41:39;94900.19;;;19.69;62.12
23176;BME280;19910;42.652;23.332;2022-07-23T00:44:17;94900.19;;;19.69;61.95
23176;BME280;19910;42.652;23.332;2022-07-23T00:46:49;94896.22;;;19.63;61.58
23176;BME280;19910;42.652;23.332;2022-07-23T00:49:19;94897.34;;;19.59;61.94
23176;BME280;19910;42.652;23.332;2022-07-23T00:51:46;94896.19;;;19.60;62.09
23176;BME280;19910;42.652;23.332;2022-07-23T00:54:16;94896.97;;;19.60;62.07
23176;BME280;19910;42.652;23.332;2022-07-23T00:56:45;94889.16;;;19.62;60.90
23176;BME280;19910;42.652;23.332;2022-07-23T00:59:12;94901.13;;;19.47;60.48
23176;BME280;19910;42.652;23.332;2022-07-23T01:01:39;94896.09;;;19.49;60.15
23176;BME280;19910;42.652;23.332;2022-07-23T01:04:07;94901.13;;;19.47;60.03
23176;BME280;19910;42.652;23.332;2022-07-23T01:06:35;94892.97;;;19.50;59.54
23176;BME280;19910;42.652;23.332;2022-07-23T01:09:03;94895.19;;;19.41;59.49
23176;BME280;19910;42.652;23.332;2022-07-23T01:11:33;94889.16;;;19.29;59.92
23176;BME280;19910;42.652;23.332;2022-07-23T01:14:07;94892.59;;;19.18;60.37
23176;BME280;19910;42.652;23.332;2022-07-23T01:16:34;94896.34;;;19.03;61.62
23176;BME280;19910;42.652;23.332;2022-07-23T01:19:01;94891.19;;;18.98;60.96
23176;BME280;19910;42.652;23.332;2022-07-23T01:21:30;94891.63;;;19.04;61.32
23176;BME280;19910;42.652;23.332;2022-07-23T01:23:58;94879.88;;;19.03;60.79
23176;BME280;19910;42.652;23.332;2022-07-23T01:26:25;94880.72;;;19.07;61.24
23176;BME280;19910;42.652;23.332;2022-07-23T01:28:52;94887.78;;;19.08;61.32
23176;BME280;19910;42.652;23.332;2022-07-23T01:31:19;94885.47;;;19.14;60.82
23176;BME280;19910;42.652;23.332;2022-07-23T01:33:46;94883.03;;;19.05;61.37
23176;BME280;19910;42.652;23.332;2022-07-23T01:36:13;94875.22;;;19.07;61.22
23176;BME280;19910;42.652;23.332;2022-07-23T01:38:39;94883.19;;;19.20;60.62
23176;BME280;19910;42.652;23.332;2022-07-23T01:41:07;94876.53;;;19.21;61.59
23176;BME280;19910;42.652;23.332;2022-07-23T01:43:34;94882.34;;;19.12;62.06
23176;BME280;19910;42.652;23.332;2022-07-23T01:46:01;94877.53;;;19.05;62.44
23176;BME280;19910;42.652;23.332;2022-07-23T01:48:28;94881.28;;;18.90;63.19
23176;BME280;19910;42.652;23.332;2022-07-23T01:50:55;94877.31;;;18.88;62.95
23176;BME280;19910;42.652;23.332;2022-07-23T01:53:22;94883.84;;;18.76;63.07
23176;BME280;19910;42.652;23.332;2022-07-23T01:55:49;94881.22;;;18.83;62.71
23176;BME280;19910;42.652;23.332;2022-07-23T01:58:17;94884.28;;;18.78;62.55
23176;BME280;19910;42.652;23.332;2022-07-23T02:00:44;94879.91;;;18.73;62.73
23176;BME280;19910;42.652;23.332;2022-07-23T02:03:11;94886.53;;;18.72;63.47
23176;BME280;19910;42.652;23.332;2022-07-23T02:05:38;94883.78;;;18.69;63.89
23176;BME280;19910;42.652;23.332;2022-07-23T02:08:04;94885.72;;;18.68;63.54
23176;BME280;19910;42.652;23.332;2022-07-23T02:10:31;94892.81;;;18.73;63.79
23176;BME280;19910;42.652;23.332;2022-07-23T02:12:58;94888.09;;;18.70;63.84
23176;BME280;19910;42.652;23.332;2022-07-23T02:15:26;94883.72;;;18.65;64.11
23176;BME280;19910;42.652;23.332;2022-07-23T02:17:54;94888.69;;;18.56;64.70
23176;BME280;19910;42.652;23.332;2022-07-23T02:20:21;94889.59;;;18.64;64.69
23176;BME280;19910;42.652;23.332;2022-07-23T02:22:49;94891.06;;;18.58;64.31
23176;BME280;19910;42.652;23.332;2022-07-23T02:25:15;94881.34;;;18.64;64.00
23176;BME280;19910;42.652;23.332;2022-07-23T02:27:42;94881.09;;;18.76;63.28
23176;BME280;19910;42.652;23.332;2022-07-23T02:30:10;94881.22;;;18.83;62.57
23176;BME280;19910;42.652;23.332;2022-07-23T02:32:38;94885.53;;;18.84;63.18
23176;BME280;19910;42.652;23.332;2022-07-23T02:35:07;94882.50;;;18.63;63.92
23176;BME280;19910;42.652;23.332;2022-07-23T02:37:34;94888.56;;;18.49;64.11
23176;BME280;19910;42.652;23.332;2022-07-23T02:40:01;94886.19;;;18.47;64.94
23176;BME280;19910;42.652;23.332;2022-07-23T02:42:28;94886.47;;;18.39;65.37
23176;BME280;19910;42.652;23.332;2022-07-23T02:44:55;94891.44;;;18.30;65.96
23176;BME280;19910;42.652;23.332;2022-07-23T02:47:22;94900.06;;;18.28;65.71
23176;BME280;19910;42.652;23.332;2022-07-23T02:49:50;94900.00;;;18.25;66.21
23176;BME280;19910;42.652;23.332;2022-07-23T02:52:17;94911.84;;;18.32;65.63
23176;BME280;19910;42.652;23.332;2022-07-23T02:54:43;94905.97;;;18.30;65.38
23176;BME280;19910;42.652;23.332;2022-07-23T02:57:10;94909.53;;;18.34;65.64
23176;BME280;19910;42.652;23.332;2022-07-23T02:59:37;94895.59;;;18.46;64.76
23176;BME280;19910;42.652;23.332;2022-07-23T03:02:04;94906.97;;;18.48;65.06
23176;BME280;19910;42.652;23.332;2022-07-23T03:04:31;94912.81;;;18.43;65.57
23176;BME280;19910;42.652;23.332;2022-07-23T03:06:59;94908.78;;;18.37;65.36
23176;BME280;19910;42.652;23.332;2022-07-23T03:09:26;94908.72;;;18.34;65.94
23176;BME280;19910;42.652;23.332;2022-07-23T03:11:53;94911.66;;;18.44;65.27
23176;BME280;19910;42.652;23.332;2022-07-23T03:14:20;94912.94;;;18.54;65.77
23176;BME280;19910;42.652;23.332;2022-07-23T03:16:46;94917.75;;;18.61;65.42
23176;BME280;19910;42.652;23.332;2022-07-23T03:19:14;94920.25;;;18.69;65.35
23176;BME280;19910;42.652;23.332;2022-07-23T03:21:41;94925.13;;;18.83;64.81
23176;BME280;19910;42.652;23.332;2022-07-23T03:24:10;94922.59;;;19.01;64.70
23176;BME280;19910;42.652;23.332;2022-07-23T03:26:36;94925.22;;;19.24;63.77
23176;BME280;19910;42.652;23.332;2022-07-23T03:29:03;94922.88;;;19.59;62.74
23176;BME280;19910;42.652;23.332;2022-07-23T03:31:31;94928.69;;;19.91;61.91
23176;BME280;19910;42.652;23.332;2022-07-23T03:33:57;94927.38;;;20.22;60.08
23176;BME280;19910;42.652;23.332;2022-07-23T03:36:25;94926.59;;;20.25;59.30
23176;BME280;19910;42.652;23.332;2022-07-23T03:38:52;94928.47;;;20.69;57.99
23176;BME280;19910;42.652;23.332;2022-07-23T03:41:21;94916.13;;;21.17;56.14
23176;BME280;19910;42.652;23.332;2022-07-23T03:43:48;94920.22;;;21.73;54.96
23176;BME280;19910;42.652;23.332;2022-07-23T03:46:15;94921.09;;;22.20;53.93
23176;BME280;19910;42.652;23.332;2022-07-23T03:48:42;94921.75;;;22.98;52.27
23176;BME280;19910;42.652;23.332;2022-07-23T03:51:09;94917.59;;;23.60;50.40
23176;BME280;19910;42.652;23.332;2022-07-23T03:53:35;94917.91;;;24.28;48.78
23176;BME280;19910;42.652;23.332;2022-07-23T03:56:03;94915.56;;;24.67;48.19
23176;BME280;19910;42.652;23.332;2022-07-23T03:58:31;94923.31;;;25.24;47.33
23176;BME280;19910;42.652;23.332;2022-07-23T04:00:58;94911.25;;;25.38;46.74
23176;BME280;19910;42.652;23.332;2022-07-23T04:03:25;94906.50;;;25.96;45.28
23176;BME280;19910;42.652;23.332;2022-07-23T04:05:52;94904.41;;;26.27;44.75
23176;BME280;19910;42.652;23.332;2022-07-23T04:08:18;94907.59;;;26.75;43.98
23176;BME280;19910;42.652;23.332;2022-07-23T04:10:45;94904.53;;;27.33;42.99
23176;BME280;19910;42.652;23.332;2022-07-23T04:13:12;94905.22;;;27.17;42.90
23176;BME280;19910;42.652;23.332;2022-07-23T04:15:40;94904.00;;;27.38;42.14
23176;BME280;19910;42.652;23.332;2022-07-23T04:18:07;94908.59;;;27.28;42.24
23176;BME280;19910;42.652;23.332;2022-07-23T04:20:34;94910.41;;;27.35;41.94
23176;BME280;19910;42.652;23.332;2022-07-23T04:23:01;94908.75;;;27.77;40.56
23176;BME280;19910;42.652;23.332;2022-07-23T04:25:27;94906.53;;;29.02;38.73
23176;BME280;19910;42.652;23.332;2022-07-23T04:27:54;94911.09;;;28.95;38.41
23176;BME280;19910;42.652;23.332;2022-07-23T04:30:21;94912.09;;;29.30;38.03
23176;BME280;19910;42.652;23.332;2022-07-23T04:32:49;94917.88;;;29.52;38.12
23176;BME280;19910;42.652;23.332;2022-07-23T04:35:16;94916.56;;;29.69;38.14
23176;BME280;19910;42.652;23.332;2022-07-23T04:37:43;94922.59;;;29.68;37.59
23176;BME280;19910;42.652;23.332;2022-07-23T04:40:11;94920.78;;;30.28;36.98
23176;BME280;19910;42.652;23.332;2022-07-23T04:42:38;94911.34;;;31.07;35.36
23176;BME280;19910;42.652;23.332;2022-07-23T04:45:06;94906.94;;;31.85;34.31
23176;BME280;19910;42.652;23.332;2022-07-23T04:47:33;94911.28;;;31.76;34.64
23176;BME280;19910;42.652;23.332;2022-07-23T04:50:01;94912.09;;;32.57;33.73
23176;BME280;19910;42.652;23.332;2022-07-23T04:52:28;94913.63;;;33.16;32.53
23176;BME280;19910;42.652;23.332;2022-07-23T04:54:55;94916.28;;;33.11;32.07
23176;BME280;19910;42.652;23.332;2022-07-23T04:57:22;94920.38;;;33.46;32.02
23176;BME280;19910;42.652;23.332;2022-07-23T04:59:49;94923.94;;;33.74;31.32
23176;BME280;19910;42.652;23.332;2022-07-23T05:02:15;94919.50;;;34.01;30.92
23176;BME280;19910;42.652;23.332;2022-07-23T05:04:42;94921.59;;;33.36;31.78
23176;BME280;19910;42.652;23.332;2022-07-23T05:07:11;94925.63;;;33.08;32.43
23176;BME280;19910;42.652;23.332;2022-07-23T05:09:38;94920.03;;;33.53;32.13
23176;BME280;19910;42.652;23.332;2022-07-23T05:12:06;94925.16;;;33.64;32.02
23176;BME280;19910;42.652;23.332;2022-07-23T05:14:33;94927.09;;;34.28;31.42
23176;BME280;19910;42.652;23.332;2022-07-23T05:16:59;94924.06;;;34.40;30.81
23176;BME280;19910;42.652;23.332;2022-07-23T05:19:26;94929.22;;;33.81;31.37
23176;BME280;19910;42.652;23.332;2022-07-23T05:21:53;94929.47;;;34.11;31.37
23176;BME280;19910;42.652;23.332;2022-07-23T05:24:21;94927.56;;;34.92;29.84
23176;BME280;19910;42.652;23.332;2022-07-23T05:26:48;94933.97;;;34.92;29.86
23176;BME280;19910;42.652;23.332;2022-07-23T05:29:15;94917.38;;;35.57;29.76
23176;BME280;19910;42.652;23.332;2022-07-23T05:31:42;94924.63;;;36.17;28.59
23176;BME280;19910;42.652;23.332;2022-07-23T05:34:09;94931.44;;;35.95;28.78
23176;BME280;19910;42.652;23.332;2022-07-23T05:36:36;94927.47;;;36.31;27.70
23176;BME280;19910;42.652;23.332;2022-07-23T05:39:09;94928.72;;;36.16;27.69
23176;BME280;19910;42.652;23.332;2022-07-23T05:41:54;94926.50;;;36.70;27.75
23176;BME280;19910;42.652;23.332;2022-07-23T05:44:27;94923.88;;;36.31;27.47
23176;BME280;19910;42.652;23.332;2022-07-23T05:47:06;94922.25;;;36.74;26.78
23176;BME280;19910;42.652;23.332;2022-07-23T05:49:41;94905.66;;;36.67;26.63
23176;BME280;19910;42.652;23.332;2022-07-23T05:52:19;94896.97;;;37.46;25.78
23176;BME280;19910;42.652;23.332;2022-07-23T05:54:45;94923.28;;;37.32;24.94
23176;BME280;19910;42.652;23.332;2022-07-23T05:57:13;94928.34;;;37.08;25.56
23176;BME280;19910;42.652;23.332;2022-07-23T05:59:40;94933.38;;;37.18;25.25
23176;BME280;19910;42.652;23.332;2022-07-23T06:02:07;94933.50;;;37.50;25.74
23176;BME280;19910;42.652;23.332;2022-07-23T06:04:34;94941.19;;;35.94;27.21
23176;BME280;19910;42.652;23.332;2022-07-23T06:07:01;94926.28;;;37.49;26.18
23176;BME280;19910;42.652;23.332;2022-07-23T06:09:28;94918.09;;;36.90;26.94
23176;BME280;19910;42.652;23.332;2022-07-23T06:11:54;94923.22;;;37.26;27.00
23176;BME280;19910;42.652;23.332;2022-07-23T06:14:23;94920.09;;;37.24;26.46
23176;BME280;19910;42.652;23.332;2022-07-23T06:16:50;94919.00;;;36.66;26.91
23176;BME280;19910;42.652;23.332;2022-07-23T06:19:17;94921.19;;;36.92;26.52
23176;BME280;19910;42.652;23.332;2022-07-23T06:21:43;94915.88;;;38.06;25.71
23176;BME280;19910;42.652;23.332;2022-07-23T06:24:10;94919.09;;;37.48;26.40
23176;BME280;19910;42.652;23.332;2022-07-23T06:26:37;94915.00;;;37.69;25.45
23176;BME280;19910;42.652;23.332;2022-07-23T06:29:04;94915.22;;;37.25;26.95
23176;BME280;19910;42.652;23.332;2022-07-23T06:31:32;94920.94;;;36.90;27.90
23176;BME280;19910;42.652;23.332;2022-07-23T06:33:59;94915.03;;;35.55;28.20
23176;BME280;19910;42.652;23.332;2022-07-23T06:36:26;94916.66;;;36.80;26.79
23176;BME280;19910;42.652;23.332;2022-07-23T06:38:53;94927.38;;;36.26;26.88
23176;BME280;19910;42.652;23.332;2022-07-23T06:41:20;94919.88;;;36.08;27.14
23176;BME280;19910;42.652;23.332;2022-07-23T06:43:48;94921.38;;;37.44;26.09
23176;BME280;19910;42.652;23.332;2022-07-23T06:46:15;94922.34;;;37.41;25.84
23176;BME280;19910;42.652;23.332;2022-07-23T06:48:43;94915.72;;;37.44;26.88
23176;BME280;19910;42.652;23.332;2022-07-23T06:51:10;94923.06;;;36.45;27.20
23176;BME280;19910;42.652;23.332;2022-07-23T06:53:37;94913.28;;;37.57;25.20
23176;BME280;19910;42.652;23.332;2022-07-23T06:56:04;94913.91;;;38.13;24.88
23176;BME280;19910;42.652;23.332;2022-07-23T06:58:30;94914.41;;;38.11;24.47
23176;BME280;19910;42.652;23.332;2022-07-23T07:00:57;94919.13;;;37.27;26.48
23176;BME280;19910;42.652;23.332;2022-07-23T07:03:24;94916.03;;;36.55;26.39
23176;BME280;19910;42.652;23.332;2022-07-23T07:05:52;94914.66;;;36.51;26.17
23176;BME280;19910;42.652;23.332;2022-07-23T07:08:22;94911.16;;;35.53;27.18
23176;BME280;19910;42.652;23.332;2022-07-23T07:10:49;94903.41;;;37.06;25.53
23176;BME280;19910;42.652;23.332;2022-07-23T07:13:18;94901.03;;;37.19;25.63
23176;BME280;19910;42.652;23.332;2022-07-23T07:15:45;94907.94;;;38.42;23.80
23176;BME280;19910;42.652;23.332;2022-07-23T07:18:12;94897.47;;;37.65;24.98
23176;BME280;19910;42.652;23.332;2022-07-23T07:20:38;94898.84;;;38.32;24.74
23176;BME280;19910;42.652;23.332;2022-07-23T07:23:07;94900.44;;;36.75;26.87
23176;BME280;19910;42.652;23.332;2022-07-23T07:25:34;94901.56;;;37.64;25.06
23176;BME280;19910;42.652;23.332;2022-07-23T07:28:01;94895.66;;;37.42;25.17
23176;BME280;19910;42.652;23.332;2022-07-23T07:30:28;94900.03;;;36.67;25.74
23176;BME280;19910;42.652;23.332;2022-07-23T07:32:55;94896.91;;;37.00;26.49
23176;BME280;19910;42.652;23.332;2022-07-23T07:35:25;94883.88;;;37.49;25.99
23176;BME280;19910;42.652;23.332;2022-07-23T07:37:55;94894.47;;;36.23;26.07
23176;BME280;19910;42.652;23.332;2022-07-23T07:40:23;94891.72;;;35.55;26.78
23176;BME280;19910;42.652;23.332;2022-07-23T07:42:52;94902.81;;;33.97;28.89
23176;BME280;19910;42.652;23.332;2022-07-23T07:45:20;94888.69;;;34.81;27.87
23176;BME280;19910;42.652;23.332;2022-07-23T07:47:48;94885.69;;;35.62;27.45
23176;BME280;19910;42.652;23.332;2022-07-23T07:50:15;94892.47;;;35.26;27.64
23176;BME280;19910;42.652;23.332;2022-07-23T07:52:42;94896.25;;;35.14;27.42
23176;BME280;19910;42.652;23.332;2022-07-23T07:55:10;94908.31;;;33.82;29.86
23176;BME280;19910;42.652;23.332;2022-07-23T07:57:39;94901.66;;;34.04;29.00
23176;BME280;19910;42.652;23.332;2022-07-23T08:00:08;94886.25;;;34.41;29.86
23176;BME280;19910;42.652;23.332;2022-07-23T08:02:40;94872.50;;;35.83;27.75
23176;BME280;19910;42.652;23.332;2022-07-23T08:05:08;94877.53;;;36.23;27.24
23176;BME280;19910;42.652;23.332;2022-07-23T08:07:35;94878.59;;;36.40;27.72
23176;BME280;19910;42.652;23.332;2022-07-23T08:10:03;94876.97;;;35.75;27.31
23176;BME280;19910;42.652;23.332;2022-07-23T08:12:39;94876.56;;;34.90;28.93
23176;BME280;19910;42.652;23.332;2022-07-23T08:15:07;94880.38;;;34.30;29.29
23176;BME280;19910;42.652;23.332;2022-07-23T08:17:34;94888.00;;;33.87;29.28
23176;BME280;19910;42.652;23.332;2022-07-23T08:20:02;94870.84;;;34.75;27.93
23176;BME280;19910;42.652;23.332;2022-07-23T08:22:44;94872.53;;;35.30;27.34
23176;BME280;19910;42.652;23.332;2022-07-23T08:25:12;94866.75;;;35.48;27.90
23176;BME280;19910;42.652;23.332;2022-07-23T08:27:40;94873.78;;;35.28;27.85
23176;BME280;19910;42.652;23.332;2022-07-23T08:30:08;94873.53;;;35.56;28.13
23176;BME280;19910;42.652;23.332;2022-07-23T08:32:48;94867.94;;;34.93;29.51
23176;BME280;19910;42.652;23.332;2022-07-23T08:35:15;94869.13;;;35.25;28.53
23176;BME280;19910;42.652;23.332;2022-07-23T08:37:42;94871.13;;;36.08;27.37
23176;BME280;19910;42.652;23.332;2022-07-23T08:40:10;94865.63;;;35.31;28.66
23176;BME280;19910;42.652;23.332;2022-07-23T08:42:37;94860.50;;;35.58;28.44
23176;BME280;19910;42.652;23.332;2022-07-23T08:45:07;94866.84;;;35.39;28.55
23176;BME280;19910;42.652;23.332;2022-07-23T08:47:36;94860.22;;;35.71;29.28
23176;BME280;19910;42.652;23.332;2022-07-23T08:50:04;94863.78;;;35.27;28.51
23176;BME280;19910;42.652;23.332;2022-07-23T08:52:32;94867.81;;;34.31;30.12
23176;BME280;19910;42.652;23.332;2022-07-23T08:54:59;94871.81;;;34.15;30.27
23176;BME280;19910;42.652;23.332;2022-07-23T08:57:26;94863.44;;;33.97;30.58
23176;BME280;19910;42.652;23.332;2022-07-23T08:59:53;94859.13;;;33.69;31.03
23176;BME280;19910;42.652;23.332;2022-07-23T09:02:21;94862.97;;;34.32;29.68
23176;BME280;19910;42.652;23.332;2022-07-23T09:04:48;94862.16;;;34.97;29.92
23176;BME280;19910;42.652;23.332;2022-07-23T09:07:15;94858.19;;;34.56;30.03
23176;BME280;19910;42.652;23.332;2022-07-23T09:09:45;94862.28;;;34.04;30.06
23176;BME280;19910;42.652;23.332;2022-07-23T09:12:12;94850.19;;;34.21;29.95
23176;BME280;19910;42.652;23.332;2022-07-23T09:14:41;94851.16;;;34.51;30.58
23176;BME280;19910;42.652;23.332;2022-07-23T09:17:09;94855.47;;;34.38;30.14
23176;BME280;19910;42.652;23.332;2022-07-23T09:19:38;94851.91;;;34.85;28.88
23176;BME280;19910;42.652;23.332;2022-07-23T09:22:18;94846.53;;;35.49;27.84
23176;BME280;19910;42.652;23.332;2022-07-23T09:25:07;94838.94;;;35.70;26.54
23176;BME280;19910;42.652;23.332;2022-07-23T09:27:52;94849.72;;;36.16;26.89
23176;BME280;19910;42.652;23.332;2022-07-23T09:30:20;94838.44;;;36.16;26.42
23176;BME280;19910;42.652;23.332;2022-07-23T09:33:07;94840.22;;;35.84;26.44
23176;BME280;19910;42.652;23.332;2022-07-23T09:35:49;94835.84;;;35.83;26.41
23176;BME280;19910;42.652;23.332;2022-07-23T09:38:17;94831.56;;;35.87;25.60
23176;BME280;19910;42.652;23.332;2022-07-23T09:40:46;94834.56;;;35.98;25.65
23176;BME280;19910;42.652;23.332;2022-07-23T09:43:25;94826.91;;;35.16;25.98
23176;BME280;19910;42.652;23.332;2022-07-23T09:45:53;94823.00;;;35.67;26.33
23176;BME280;19910;42.652;23.332;2022-07-23T09:48:21;94825.81;;;35.82;25.96
23176;BME280;19910;42.652;23.332;2022-07-23T09:50:51;94822.59;;;35.45;26.19
23176;BME280;19910;42.652;23.332;2022-07-23T09:53:24;94823.69;;;35.91;25.52
23176;BME280;19910;42.652;23.332;2022-07-23T09:55:53;94821.09;;;35.20;24.35
23176;BME280;19910;42.652;23.332;2022-07-23T09:58:22;94820.28;;;35.05;24.65
23176;BME280;19910;42.652;23.332;2022-07-23T10:00:52;94821.81;;;34.91;26.06
23176;BME280;19910;42.652;23.332;2022-07-23T10:03:20;94811.69;;;34.61;25.35
23176;BME280;19910;42.652;23.332;2022-07-23T10:05:49;94809.00;;;34.90;25.29
23176;BME280;19910;42.652;23.332;2022-07-23T10:08:18;94811.81;;;35.87;24.11
23176;BME280;19910;42.652;23.332;2022-07-23T10:10:46;94795.66;;;36.03;24.79
23176;BME280;19910;42.652;23.332;2022-07-23T10:13:14;94804.09;;;35.14;24.91
23176;BME280;19910;42.652;23.332;2022-07-23T10:15:58;94805.53;;;35.10;24.69
23176;BME280;19910;42.652;23.332;2022-07-23T10:18:26;94797.41;;;35.12;24.47
23176;BME280;19910;42.652;23.332;2022-07-23T10:20:54;94790.03;;;35.29;23.94
23176;BME280;19910;42.652;23.332;2022-07-23T10:23:26;94795.03;;;35.78;23.49
23176;BME280;19910;42.652;23.332;2022-07-23T10:25:59;94787.03;;;35.77;23.11
23176;BME280;19910;42.652;23.332;2022-07-23T10:29:01;94791.78;;;35.56;22.41
23176;BME280;19910;42.652;23.332;2022-07-23T10:31:35;94791.72;;;35.80;22.43
23176;BME280;19910;42.652;23.332;2022-07-23T10:34:12;94790.81;;;35.59;23.07
23176;BME280;19910;42.652;23.332;2022-07-23T10:36:47;94785.06;;;35.68;23.14
23176;BME280;19910;42.652;23.332;2022-07-23T10:39:22;94777.31;;;36.13;21.94
23176;BME280;19910;42.652;23.332;2022-07-23T10:41:50;94778.47;;;36.36;21.59
23176;BME280;19910;42.652;23.332;2022-07-23T10:44:19;94776.81;;;36.49;21.68
23176;BME280;19910;42.652;23.332;2022-07-23T10:46:55;94766.03;;;36.68;21.33
23176;BME280;19910;42.652;23.332;2022-07-23T10:49:32;94775.31;;;37.15;20.59
23176;BME280;19910;42.652;23.332;2022-07-23T10:52:20;94761.81;;;37.24;21.14
23176;BME280;19910;42.652;23.332;2022-07-23T10:54:50;94760.03;;;37.01;20.61
23176;BME280;19910;42.652;23.332;2022-07-23T10:57:18;94757.03;;;37.10;19.88
23176;BME280;19910;42.652;23.332;2022-07-23T11:02:52;94751.00;;;36.36;20.70
23176;BME280;19910;42.652;23.332;2022-07-23T11:05:20;94758.16;;;35.67;18.77
23176;BME280;19910;42.652;23.332;2022-07-23T11:08:17;94754.03;;;35.97;19.39
23176;BME280;19910;42.652;23.332;2022-07-23T11:10:50;94746.31;;;35.48;20.26
23176;BME280;19910;42.652;23.332;2022-07-23T11:13:48;94747.94;;;35.55;19.32
23176;BME280;19910;42.652;23.332;2022-07-23T11:16:21;94733.47;;;35.62;18.63
23176;BME280;19910;42.652;23.332;2022-07-23T11:19:05;94739.31;;;35.44;19.65
23176;BME280;19910;42.652;23.332;2022-07-23T11:21:49;94740.06;;;35.88;19.44
23176;BME280;19910;42.652;23.332;2022-07-23T11:24:22;94728.25;;;36.65;19.25
23176;BME280;19910;42.652;23.332;2022-07-23T11:26:57;94726.31;;;36.72;19.40
23176;BME280;19910;42.652;23.332;2022-07-23T11:29:44;94724.56;;;36.74;19.14
23176;BME280;19910;42.652;23.332;2022-07-23T11:32:28;94724.81;;;37.22;18.60
23176;BME280;19910;42.652;23.332;2022-07-23T11:34:56;94718.47;;;37.33;17.85
23176;BME280;19910;42.652;23.332;2022-07-23T11:37:32;94718.47;;;37.33;19.19
23176;BME280;19910;42.652;23.332;2022-07-23T11:40:04;94718.97;;;37.31;17.82
23176;BME280;19910;42.652;23.332;2022-07-23T11:42:33;94717.44;;;37.62;18.48
23176;BME280;19910;42.652;23.332;2022-07-23T11:45:00;94714.56;;;37.25;17.99
23176;BME280;19910;42.652;23.332;2022-07-23T11:47:27;94711.81;;;37.10;17.93
23176;BME280;19910;42.652;23.332;2022-07-23T11:49:55;94705.31;;;37.24;18.27
23176;BME280;19910;42.652;23.332;2022-07-23T11:52:23;94714.72;;;37.42;17.79
23176;BME280;19910;42.652;23.332;2022-07-23T11:54:52;94702.88;;;36.91;18.39
23176;BME280;19910;42.652;23.332;2022-07-23T11:57:24;94695.31;;;37.03;18.47
23176;BME280;19910;42.652;23.332;2022-07-23T11:59:53;94702.81;;;37.63;18.38
23176;BME280;19910;42.652;23.332;2022-07-23T12:02:21;94691.81;;;37.14;18.09
23176;BME280;19910;42.652;23.332;2022-07-23T12:04:50;94695.97;;;37.44;19.00
23176;BME280;19910;42.652;23.332;2022-07-23T12:07:38;94696.28;;;37.83;18.18
23176;BME280;19910;42.652;23.332;2022-07-23T12:10:11;94686.44;;;38.16;17.58
23176;BME280;19910;42.652;23.332;2022-07-23T12:12:41;94688.72;;;37.69;17.60
23176;BME280;19910;42.652;23.332;2022-07-23T12:15:10;94691.56;;;36.86;18.36
23176;BME280;19910;42.652;23.332;2022-07-23T12:17:39;94687.72;;;37.41;17.48
23176;BME280;19910;42.652;23.332;2022-07-23T12:20:09;94686.22;;;37.19;17.45
23176;BME280;19910;42.652;23.332;2022-07-23T12:22:38;94682.00;;;37.09;17.99
23176;BME280;19910;42.652;23.332;2022-07-23T12:25:07;94678.00;;;36.70;18.04
23176;BME280;19910;42.652;23.332;2022-07-23T12:27:35;94684.84;;;36.83;16.63
23176;BME280;19910;42.652;23.332;2022-07-23T12:30:23;94677.47;;;36.91;16.39
23176;BME280;19910;42.652;23.332;2022-07-23T12:32:52;94682.03;;;36.83;16.31
23176;BME280;19910;42.652;23.332;2022-07-23T12:35:20;94674.28;;;37.30;16.54
23176;BME280;19910;42.652;23.332;2022-07-23T12:37:49;94670.09;;;37.57;15.36
23176;BME280;19910;42.652;23.332;2022-07-23T12:40:23;94667.16;;;37.77;16.04
23176;BME280;19910;42.652;23.332;2022-07-23T12:42:52;94662.28;;;37.78;15.27
23176;BME280;19910;42.652;23.332;2022-07-23T12:45:19;94659.41;;;38.15;15.91
23176;BME280;19910;42.652;23.332;2022-07-23T12:48:03;94658.72;;;38.31;16.10
23176;BME280;19910;42.652;23.332;2022-07-23T12:50:52;94659.72;;;37.80;15.63
23176;BME280;19910;42.652;23.332;2022-07-23T12:53:22;94649.31;;;38.02;14.46
23176;BME280;19910;42.652;23.332;2022-07-23T12:55:50;94651.28;;;38.33;14.97
23176;BME280;19910;42.652;23.332;2022-07-23T12:58:19;94655.91;;;37.88;15.17
23176;BME280;19910;42.652;23.332;2022-07-23T13:01:04;94668.06;;;37.00;15.32
23176;BME280;19910;42.652;23.332;2022-07-23T13:03:38;94652.94;;;37.29;16.40
23176;BME280;19910;42.652;23.332;2022-07-23T13:06:08;94656.00;;;36.74;15.96